createdAt,value
2023-03-19T00:00:53.872Z,15.88
2023-03-19T00:03:22.233Z,15.40
2023-03-19T00:05:53.809Z,16.92
2023-03-19T00:08:23.719Z,16.45
2023-03-19T00:10:52.268Z,16.27
2023-03-19T00:13:21.013Z,16.58
2023-03-19T00:15:49.023Z,16.73
2023-03-19T00:18:17.133Z,16.95
2023-03-19T00:20:44.937Z,15.50
2023-03-19T00:23:13.582Z,16.05
2023-03-19T00:25:42.240Z,17.67
2023-03-19T00:28:10.210Z,17.75
2023-03-19T00:30:38.329Z,16.08
2023-03-19T00:33:06.782Z,16.52
2023-03-19T00:35:34.751Z,16.92
2023-03-19T00:38:03.012Z,17.15
2023-03-19T00:40:33.605Z,17.75
2023-03-19T00:43:01.740Z,17.70
2023-03-19T00:45:30.996Z,20.17
2023-03-19T00:47:59.916Z,18.67
2023-03-19T00:50:27.943Z,18.60
2023-03-19T00:52:55.824Z,18.33
2023-03-19T00:55:25.725Z,21.30
2023-03-19T00:57:53.594Z,19.95
2023-03-19T01:00:22.610Z,18.90
2023-03-19T01:02:50.674Z,19.55
2023-03-19T01:05:18.889Z,19.73
2023-03-19T01:07:46.933Z,20.48
2023-03-19T01:10:22.195Z,20.98
2023-03-19T01:12:51.530Z,19.83
2023-03-19T01:15:19.967Z,20.95
2023-03-19T01:17:47.948Z,18.90
2023-03-19T01:20:18.785Z,20.80
2023-03-19T01:22:47.379Z,20.92
2023-03-19T01:25:14.958Z,22.13
2023-03-19T01:27:52.424Z,20.15
2023-03-19T01:30:21.786Z,22.63
2023-03-19T01:33:08.299Z,22.30
2023-03-19T01:36:02.584Z,22.58
2023-03-19T01:38:36.767Z,23.92
2023-03-19T01:41:07.978Z,26.73
2023-03-19T01:43:36.700Z,23.90
2023-03-19T01:46:38.187Z,23.73
2023-03-19T01:49:20.135Z,25.48
2023-03-19T01:51:54.566Z,24.85
2023-03-19T01:54:49.260Z,24.20
2023-03-19T01:57:36.802Z,24.23
2023-03-19T02:00:12.571Z,24.65
2023-03-19T02:02:53.763Z,24.13
2023-03-19T02:05:57.872Z,27.17
2023-03-19T02:08:26.079Z,25.73
2023-03-19T02:10:56.149Z,27.30
2023-03-19T02:13:24.748Z,27.63
2023-03-19T02:15:53.766Z,26.58
2023-03-19T02:18:24.595Z,25.33
2023-03-19T02:21:10.338Z,26.55
2023-03-19T02:24:02.873Z,28.38
2023-03-19T02:26:58.010Z,25.48
2023-03-19T02:29:26.598Z,25.30
2023-03-19T02:31:54.925Z,25.15
2023-03-19T02:34:22.760Z,25.80
2023-03-19T02:37:07.981Z,26.27
2023-03-19T02:39:48.682Z,25.58
2023-03-19T02:42:19.247Z,26.80
2023-03-19T02:44:47.844Z,26.55
2023-03-19T02:47:16.344Z,24.70
2023-03-19T02:49:46.166Z,26.50
2023-03-19T02:52:14.001Z,23.65
2023-03-19T02:54:42.175Z,24.40
2023-03-19T02:57:09.821Z,24.88
2023-03-19T02:59:39.160Z,25.15
2023-03-19T03:02:08.419Z,25.00
2023-03-19T03:04:37.433Z,25.75
2023-03-19T03:07:06.284Z,23.88
2023-03-19T03:09:34.559Z,24.92
2023-03-19T03:12:03.350Z,24.92
2023-03-19T03:14:31.731Z,21.58
2023-03-19T03:17:00.510Z,25.35
2023-03-19T03:19:28.172Z,23.65
2023-03-19T03:21:56.506Z,24.48
2023-03-19T03:24:24.600Z,22.67
2023-03-19T03:26:52.286Z,22.60
2023-03-19T03:29:21.622Z,21.42
2023-03-19T03:31:50.518Z,22.05
2023-03-19T03:34:18.325Z,23.38
2023-03-19T03:36:49.632Z,20.63
2023-03-19T03:39:19.167Z,19.58
2023-03-19T03:41:46.812Z,21.63
2023-03-19T03:44:14.456Z,20.02
2023-03-19T03:46:43.589Z,21.23
2023-03-19T03:49:11.787Z,20.38
2023-03-19T03:51:39.843Z,21.15
2023-03-19T03:54:08.244Z,20.52
2023-03-19T03:56:36.519Z,21.75
2023-03-19T03:59:04.088Z,19.67
2023-03-19T04:01:31.774Z,20.38
2023-03-19T04:04:00.136Z,20.30
2023-03-19T04:06:29.390Z,22.30
2023-03-19T04:09:27.257Z,20.70
2023-03-19T04:11:55.010Z,22.25
2023-03-19T04:14:23.223Z,25.25
2023-03-19T04:16:51.298Z,23.95
2023-03-19T04:19:20.379Z,22.95
2023-03-19T04:21:48.824Z,25.23
2023-03-19T04:24:17.257Z,26.90
2023-03-19T04:26:47.206Z,29.13
2023-03-19T04:29:15.722Z,28.30
2023-03-19T04:31:45.551Z,30.23
2023-03-19T04:34:13.089Z,28.83
2023-03-19T04:36:41.464Z,29.30
2023-03-19T04:39:10.115Z,28.45
2023-03-19T04:41:38.734Z,30.67
2023-03-19T04:44:25.411Z,30.77
2023-03-19T04:46:53.919Z,30.05
2023-03-19T04:49:22.897Z,28.10
2023-03-19T04:51:52.346Z,28.38
2023-03-19T04:54:21.468Z,29.40
2023-03-19T04:56:49.663Z,28.50
2023-03-19T04:59:17.875Z,27.88
2023-03-19T05:01:46.037Z,28.42
2023-03-19T05:04:16.153Z,27.77
2023-03-19T05:06:44.457Z,29.55
2023-03-19T05:09:12.207Z,28.63
2023-03-19T05:11:40.506Z,29.83
2023-03-19T05:14:16.596Z,29.48
2023-03-19T05:17:11.175Z,30.05
2023-03-19T05:20:09.739Z,31.52
2023-03-19T05:22:39.725Z,32.55
2023-03-19T05:25:08.945Z,32.50
2023-03-19T05:27:40.210Z,30.92
2023-03-19T05:30:11.132Z,31.42
2023-03-19T05:32:42.297Z,30.90
2023-03-19T05:35:17.626Z,30.88
2023-03-19T05:37:46.077Z,31.83
2023-03-19T05:40:13.936Z,30.27
2023-03-19T05:42:46.283Z,32.90
2023-03-19T05:45:17.429Z,31.80
2023-03-19T05:47:50.620Z,31.45
2023-03-19T05:50:20.429Z,32.72
2023-03-19T05:53:06.777Z,31.30
2023-03-19T05:55:36.876Z,32.15
2023-03-19T05:58:08.185Z,32.92
2023-03-19T06:00:36.842Z,34.50
2023-03-19T06:03:05.554Z,33.47
2023-03-19T06:05:52.158Z,33.97
2023-03-19T06:08:33.093Z,33.03
2023-03-19T06:11:21.098Z,32.90
2023-03-19T06:14:01.876Z,33.45
2023-03-19T06:16:32.009Z,34.35
2023-03-19T06:19:00.991Z,33.10
2023-03-19T06:21:29.739Z,30.25
2023-03-19T06:24:01.178Z,30.92
2023-03-19T06:26:35.030Z,34.38
2023-03-19T06:29:07.740Z,32.80
2023-03-19T06:31:36.385Z,31.30
2023-03-19T06:34:12.680Z,31.33
2023-03-19T06:36:42.778Z,31.77
2023-03-19T06:39:13.813Z,29.98
2023-03-19T06:41:42.364Z,29.27
2023-03-19T06:44:17.572Z,29.55
2023-03-19T06:46:45.572Z,33.42
2023-03-19T06:49:13.182Z,29.67
2023-03-19T06:51:40.929Z,29.42
2023-03-19T06:54:08.917Z,28.13
2023-03-19T06:56:36.692Z,29.15
2023-03-19T06:59:05.138Z,28.92
2023-03-19T07:01:32.981Z,29.00
2023-03-19T07:04:01.039Z,26.92
2023-03-19T07:06:30.177Z,27.25
2023-03-19T07:08:58.553Z,29.50
2023-03-19T07:11:26.423Z,27.08
2023-03-19T07:13:54.697Z,26.60
2023-03-19T07:16:23.477Z,24.85
2023-03-19T07:18:51.132Z,26.33
2023-03-19T07:21:19.262Z,26.98
2023-03-19T07:23:47.387Z,27.83
2023-03-19T07:26:15.482Z,25.73
2023-03-19T07:28:43.713Z,26.23
2023-03-19T07:31:11.882Z,25.02
2023-03-19T07:33:40.451Z,24.42
2023-03-19T07:36:08.896Z,24.38
2023-03-19T07:38:36.576Z,25.48
2023-03-19T07:41:04.483Z,25.30
2023-03-19T07:43:32.444Z,23.83
2023-03-19T07:46:01.614Z,23.13
2023-03-19T07:48:29.737Z,24.23
2023-03-19T07:50:57.948Z,24.33
2023-03-19T07:53:26.177Z,21.98
2023-03-19T07:55:53.835Z,22.80
2023-03-19T07:58:21.677Z,23.02
2023-03-19T08:00:49.886Z,22.20
2023-03-19T08:03:18.484Z,22.85
2023-03-19T08:05:50.136Z,22.35
2023-03-19T08:08:18.139Z,20.92
2023-03-19T08:10:47.532Z,23.17
2023-03-19T08:13:15.208Z,21.67
2023-03-19T08:15:42.900Z,21.17
2023-03-19T08:18:11.601Z,21.20
2023-03-19T08:20:39.199Z,21.77
2023-03-19T08:23:07.422Z,21.63
2023-03-19T08:25:35.037Z,20.13
2023-03-19T08:28:03.105Z,22.77
2023-03-19T08:30:32.271Z,21.15
2023-03-19T08:33:00.188Z,21.33
2023-03-19T08:35:28.265Z,20.02
2023-03-19T08:37:57.030Z,20.25
2023-03-19T08:40:25.722Z,19.60
2023-03-19T08:42:54.622Z,20.08
2023-03-19T08:45:23.880Z,19.58
2023-03-19T08:47:52.057Z,19.85
2023-03-19T08:50:19.923Z,20.10
2023-03-19T08:52:48.579Z,19.70
2023-03-19T08:55:17.285Z,18.95
2023-03-19T08:57:45.052Z,19.08
2023-03-19T09:00:13.503Z,18.50
2023-03-19T09:02:41.230Z,20.10
2023-03-19T09:05:09.323Z,18.23
2023-03-19T09:07:37.396Z,18.67
2023-03-19T09:10:05.800Z,16.73
2023-03-19T09:12:33.979Z,15.70
2023-03-19T09:15:02.124Z,15.43
2023-03-19T09:17:29.841Z,18.30
2023-03-19T09:19:58.890Z,15.95
2023-03-19T09:22:26.599Z,19.15
2023-03-19T09:24:54.209Z,18.20
2023-03-19T09:27:22.285Z,18.33
2023-03-19T09:29:50.682Z,16.35
2023-03-19T09:32:18.340Z,17.52
2023-03-19T09:34:47.788Z,16.08
2023-03-19T09:37:15.864Z,16.38
2023-03-19T09:39:44.577Z,18.33
2023-03-19T09:42:31.078Z,14.82
2023-03-19T09:44:59.041Z,13.98
2023-03-19T09:47:35.443Z,14.18
2023-03-19T09:50:16.420Z,17.25
2023-03-19T09:53:23.101Z,16.60
2023-03-19T09:55:54.519Z,14.30
2023-03-19T09:58:30.921Z,14.02
2023-03-19T10:01:01.150Z,14.82
2023-03-19T10:03:51.482Z,15.52
2023-03-19T10:06:26.874Z,15.57
2023-03-19T10:09:20.101Z,12.90
2023-03-19T10:11:57.852Z,13.85
2023-03-19T10:14:37.896Z,14.43
2023-03-19T10:17:12.800Z,13.10
2023-03-19T10:20:16.696Z,13.73
2023-03-19T10:22:55.553Z,12.95
2023-03-19T10:25:27.846Z,13.30
2023-03-19T10:28:01.646Z,13.85
2023-03-19T10:33:24.916Z,12.63
2023-03-19T10:36:06.440Z,11.93
2023-03-19T10:38:40.662Z,12.18
2023-03-19T10:41:23.865Z,11.20
2023-03-19T10:44:04.388Z,11.40
2023-03-19T10:46:40.651Z,14.02
2023-03-19T10:49:16.533Z,14.13
2023-03-19T10:51:46.307Z,12.30
2023-03-19T10:54:24.949Z,13.07
2023-03-19T10:56:57.489Z,12.55
2023-03-19T10:59:30.984Z,13.18
2023-03-19T11:04:29.859Z,11.50
2023-03-19T11:07:09.804Z,11.43
2023-03-19T11:09:41.702Z,11.30
2023-03-19T11:12:29.585Z,10.90
2023-03-19T11:14:58.886Z,10.63
2023-03-19T11:17:57.460Z,10.32
2023-03-19T11:20:35.581Z,9.02
2023-03-19T11:23:09.427Z,11.20
2023-03-19T11:25:38.915Z,10.55
2023-03-19T11:28:09.589Z,11.18
2023-03-19T11:30:44.118Z,10.85
2023-03-19T11:33:31.800Z,10.68
2023-03-19T11:36:14.111Z,11.02
2023-03-19T11:39:19.847Z,11.05
2023-03-19T11:42:21.943Z,9.48
2023-03-19T11:45:20.767Z,10.25
2023-03-19T11:48:20.321Z,9.90
2023-03-19T11:50:59.268Z,10.88
2023-03-19T11:53:32.599Z,10.52
2023-03-19T11:56:52.946Z,10.00
2023-03-19T11:59:36.671Z,10.82
2023-03-19T12:05:02.955Z,11.32
2023-03-19T12:07:43.396Z,10.38
2023-03-19T12:10:30.440Z,11.88
2023-03-19T12:13:19.741Z,10.45
2023-03-19T12:16:06.018Z,12.93
2023-03-19T12:18:52.455Z,14.10
2023-03-19T12:21:29.888Z,13.75
2023-03-19T12:24:00.697Z,14.88
2023-03-19T12:26:50.985Z,14.02
2023-03-19T12:29:31.222Z,13.90
2023-03-19T12:32:10.276Z,15.25
2023-03-19T12:34:46.599Z,16.05
2023-03-19T12:37:35.654Z,16.70
2023-03-19T12:40:35.022Z,16.58
2023-03-19T12:43:07.930Z,16.98
2023-03-19T12:45:51.325Z,19.63
2023-03-19T12:48:41.720Z,18.80
2023-03-19T12:51:13.899Z,17.90
2023-03-19T12:53:56.459Z,18.30
2023-03-19T12:56:59.950Z,17.50
2023-03-19T12:59:59.961Z,18.50
2023-03-19T13:02:54.568Z,18.75
2023-03-19T13:06:08.877Z,19.63
2023-03-19T13:09:05.047Z,18.08
2023-03-19T13:11:39.387Z,17.77
2023-03-19T13:14:26.832Z,19.10
2023-03-19T13:17:05.213Z,18.67
2023-03-19T13:19:48.205Z,18.73
2023-03-19T13:22:22.216Z,20.10
2023-03-19T13:24:52.313Z,17.35
2023-03-19T13:27:36.422Z,16.98
2023-03-19T13:30:17.885Z,19.95
2023-03-19T13:33:02.373Z,18.10
2023-03-19T13:35:40.809Z,17.88
2023-03-19T13:38:15.507Z,18.40
2023-03-19T13:41:01.275Z,19.83
2023-03-19T13:43:29.583Z,17.40
2023-03-19T13:46:12.372Z,18.00
2023-03-19T13:48:45.798Z,19.08
2023-03-19T13:51:20.399Z,21.48
2023-03-19T13:53:54.818Z,20.60
2023-03-19T13:56:29.970Z,19.40
2023-03-19T13:59:24.355Z,19.77
2023-03-19T14:01:52.805Z,20.02
2023-03-19T14:04:35.303Z,18.08
2023-03-19T14:07:19.304Z,17.40
2023-03-19T14:10:00.183Z,17.52
2023-03-19T14:12:39.977Z,20.02
2023-03-19T14:15:11.332Z,18.77
2023-03-19T14:17:54.985Z,19.50
2023-03-19T14:20:37.556Z,19.50
2023-03-19T14:23:08.921Z,20.83
2023-03-19T14:26:07.325Z,18.80
2023-03-19T14:29:13.529Z,19.70
2023-03-19T14:31:53.691Z,20.08
2023-03-19T14:34:22.428Z,19.63
2023-03-19T14:37:17.761Z,23.13
2023-03-19T14:39:53.022Z,21.20
2023-03-19T14:42:27.273Z,22.70
2023-03-19T14:45:14.535Z,21.40
2023-03-19T14:48:21.060Z,22.40
2023-03-19T14:51:07.350Z,22.80
2023-03-19T14:53:46.855Z,21.08
2023-03-19T14:56:24.372Z,20.80
2023-03-19T14:58:57.010Z,21.20
2023-03-19T15:01:30.077Z,20.95
2023-03-19T15:04:04.881Z,20.45
2023-03-19T15:06:36.508Z,20.92
2023-03-19T15:09:16.253Z,21.55
2023-03-19T15:11:43.883Z,21.40
2023-03-19T15:14:33.661Z,21.15
2023-03-19T15:17:04.860Z,20.05
2023-03-19T15:19:35.956Z,17.35
2023-03-19T15:22:17.093Z,18.90
2023-03-19T15:24:45.050Z,18.05
2023-03-19T15:27:24.596Z,17.67
2023-03-19T15:29:53.976Z,19.98
2023-03-19T15:33:09.021Z,19.95
2023-03-19T15:35:34.037Z,20.17
2023-03-19T15:38:09.375Z,19.23
2023-03-19T15:40:39.160Z,21.60
2023-03-19T15:43:11.226Z,22.02
2023-03-19T15:45:42.755Z,20.13
2023-03-19T15:48:25.637Z,20.55
2023-03-19T15:51:01.594Z,19.40
2023-03-19T15:53:33.584Z,19.00
2023-03-19T15:56:03.642Z,19.70
2023-03-19T15:58:40.148Z,18.02
2023-03-19T16:01:10.807Z,20.77
2023-03-19T16:03:41.819Z,20.73
2023-03-19T16:06:29.413Z,20.40
2023-03-19T16:09:15.660Z,20.33
2023-03-19T16:11:46.150Z,19.42
2023-03-19T16:14:14.227Z,15.65
2023-03-19T16:16:45.343Z,16.70
2023-03-19T16:19:32.777Z,14.43
2023-03-19T16:22:02.207Z,15.02
2023-03-19T16:24:43.128Z,16.80
2023-03-19T16:27:14.205Z,15.73
2023-03-19T16:29:46.561Z,16.35
2023-03-19T16:32:22.961Z,16.33
2023-03-19T16:34:56.046Z,15.88
2023-03-19T16:37:56.441Z,16.88
2023-03-19T16:40:25.239Z,16.42
2023-03-19T16:42:56.247Z,15.95
2023-03-19T16:45:29.637Z,14.98
2023-03-19T16:48:01.002Z,15.27
2023-03-19T16:50:32.095Z,18.73
2023-03-19T16:53:02.280Z,19.42
2023-03-19T16:55:37.027Z,18.58
2023-03-19T16:58:16.267Z,17.08
2023-03-19T17:00:45.318Z,17.75
2023-03-19T17:03:15.891Z,18.63
2023-03-19T17:05:46.111Z,18.25
2023-03-19T17:08:15.014Z,16.88
2023-03-19T17:10:49.281Z,25.05
2023-03-19T17:13:28.128Z,18.55
2023-03-19T17:16:02.841Z,22.92
2023-03-19T17:18:35.276Z,27.05
2023-03-19T17:21:11.239Z,20.77
2023-03-19T17:23:39.336Z,24.20
2023-03-19T17:26:19.897Z,23.75
2023-03-19T17:28:48.287Z,18.38
2023-03-19T17:31:25.733Z,16.35
2023-03-19T17:34:01.395Z,15.50
2023-03-19T17:36:29.478Z,17.10
2023-03-19T17:38:57.551Z,17.33
2023-03-19T17:41:26.042Z,16.73
2023-03-19T17:43:54.743Z,18.67
2023-03-19T17:46:25.294Z,17.63
2023-03-19T17:48:54.095Z,17.92
2023-03-19T17:51:23.935Z,17.25
2023-03-19T17:53:54.350Z,18.73
2023-03-19T17:56:25.631Z,18.23
2023-03-19T17:58:54.672Z,18.55
2023-03-19T18:01:27.345Z,19.13
2023-03-19T18:03:57.977Z,19.08
2023-03-19T18:06:31.955Z,23.85
2023-03-19T18:08:59.630Z,22.40
2023-03-19T18:11:27.837Z,20.50
2023-03-19T18:13:56.021Z,21.35
2023-03-19T18:16:29.173Z,21.55
2023-03-19T18:19:01.245Z,21.13
2023-03-19T18:21:31.146Z,20.92
2023-03-19T18:23:58.943Z,22.85
2023-03-19T18:26:27.141Z,22.55
2023-03-19T18:28:55.592Z,22.00
2023-03-19T18:31:25.892Z,23.67
2023-03-19T18:34:02.997Z,23.90
2023-03-19T18:36:32.988Z,22.15
2023-03-19T18:39:00.759Z,22.45
2023-03-19T18:41:29.686Z,22.15
2023-03-19T18:44:08.144Z,22.13
2023-03-19T18:46:37.797Z,20.27
2023-03-19T18:49:24.851Z,21.63
2023-03-19T18:52:08.664Z,22.30
2023-03-19T18:54:36.835Z,22.45
2023-03-19T18:57:05.871Z,22.88
2023-03-19T18:59:34.065Z,22.23
2023-03-19T19:02:27.003Z,22.55
2023-03-19T19:04:55.032Z,22.00
2023-03-19T19:07:22.678Z,22.90
2023-03-19T19:09:51.592Z,21.90
2023-03-19T19:12:20.012Z,23.58
2023-03-19T19:14:48.724Z,22.83
2023-03-19T19:17:19.843Z,23.67
2023-03-19T19:19:48.336Z,24.52
2023-03-19T19:22:18.172Z,25.42
2023-03-19T19:24:46.659Z,22.10
2023-03-19T19:27:20.967Z,20.85
2023-03-19T19:29:50.173Z,20.55
2023-03-19T19:32:26.475Z,23.25
2023-03-19T19:34:54.690Z,22.23
2023-03-19T19:37:23.683Z,22.73
2023-03-19T19:39:53.219Z,24.63
2023-03-19T19:42:23.466Z,24.40
2023-03-19T19:44:54.270Z,26.40
2023-03-19T19:47:22.122Z,24.65
2023-03-19T19:49:50.950Z,24.33
2023-03-19T19:52:19.873Z,25.10
2023-03-19T19:54:48.445Z,25.05
2023-03-19T19:57:27.209Z,23.35
2023-03-19T19:59:56.010Z,22.73
2023-03-19T20:02:28.823Z,23.17
2023-03-19T20:04:59.099Z,26.03
2023-03-19T20:07:27.427Z,27.10
2023-03-19T20:09:55.141Z,30.45
2023-03-19T20:12:31.147Z,30.92
2023-03-19T20:15:00.463Z,29.10
2023-03-19T20:17:29.042Z,29.40
2023-03-19T20:19:57.559Z,26.40
2023-03-19T20:22:25.722Z,25.48
2023-03-19T20:24:53.827Z,26.95
2023-03-19T20:27:28.867Z,24.52
2023-03-19T20:29:56.936Z,27.25
2023-03-19T20:32:32.797Z,27.08
2023-03-19T20:35:02.036Z,27.42
2023-03-19T20:37:31.150Z,27.50
2023-03-19T20:39:59.705Z,27.50
2023-03-19T20:42:32.094Z,28.10
2023-03-19T20:45:01.529Z,28.02
2023-03-19T20:47:29.424Z,27.48
2023-03-19T20:49:57.410Z,28.02
2023-03-19T20:52:26.096Z,29.10
2023-03-19T20:54:54.837Z,26.63
2023-03-19T20:57:29.313Z,29.67
2023-03-19T21:00:02.104Z,28.35
2023-03-19T21:02:29.965Z,27.03
2023-03-19T21:04:58.727Z,28.67
2023-03-19T21:07:34.665Z,29.02
2023-03-19T21:10:07.891Z,28.58
2023-03-19T21:12:36.579Z,29.77
2023-03-19T21:15:04.458Z,28.45
2023-03-19T21:17:32.153Z,27.73
2023-03-19T21:20:00.758Z,28.50
2023-03-19T21:22:30.782Z,29.38
2023-03-19T21:25:06.171Z,30.60
2023-03-19T21:27:36.980Z,28.50
2023-03-19T21:30:05.948Z,28.48
2023-03-19T21:32:33.693Z,29.50
2023-03-19T21:35:01.814Z,30.42
2023-03-19T21:37:29.816Z,29.08
2023-03-19T21:39:57.968Z,29.70
2023-03-19T21:42:26.892Z,29.58
2023-03-19T21:44:59.598Z,28.85
2023-03-19T21:47:27.298Z,30.02
2023-03-19T21:49:56.504Z,29.88
2023-03-19T21:52:24.190Z,30.25
2023-03-19T21:54:52.396Z,28.75
2023-03-19T21:57:20.780Z,32.28
2023-03-19T21:59:48.925Z,29.67
2023-03-19T22:02:23.348Z,29.55
2023-03-19T22:04:51.389Z,30.20
2023-03-19T22:07:19.105Z,29.55
2023-03-19T22:09:46.760Z,29.70
2023-03-19T22:12:26.085Z,28.70
2023-03-19T22:14:54.820Z,29.55
2023-03-19T22:17:26.160Z,29.67
2023-03-19T22:19:53.812Z,29.80
2023-03-19T22:22:21.939Z,31.10
2023-03-19T22:24:49.734Z,30.85
2023-03-19T22:27:17.884Z,29.90
2023-03-19T22:29:47.038Z,29.73
2023-03-19T22:32:18.068Z,33.90
2023-03-19T22:34:45.938Z,32.60
2023-03-19T22:37:29.258Z,32.42
2023-03-19T22:39:57.525Z,30.63
2023-03-19T22:42:26.880Z,32.30
2023-03-19T22:44:54.868Z,31.05
2023-03-19T22:47:26.199Z,30.75
2023-03-19T22:49:53.971Z,31.75
2023-03-19T22:52:22.363Z,32.22
2023-03-19T22:54:53.100Z,32.80
2023-03-19T22:57:20.909Z,31.17
2023-03-19T22:59:49.050Z,32.38
2023-03-19T23:02:18.216Z,31.92
2023-03-19T23:04:46.980Z,32.55
2023-03-19T23:07:15.586Z,31.20
2023-03-19T23:09:43.582Z,31.38
2023-03-19T23:12:13.741Z,29.73
2023-03-19T23:14:41.570Z,32.55
2023-03-19T23:17:19.761Z,31.73
2023-03-19T23:19:48.513Z,29.58
2023-03-19T23:22:17.364Z,31.70
2023-03-19T23:24:45.514Z,31.10
2023-03-19T23:27:25.206Z,33.35
2023-03-19T23:29:53.702Z,32.65
2023-03-19T23:32:22.024Z,33.00
2023-03-19T23:34:59.563Z,31.20
2023-03-19T23:37:29.200Z,32.10
2023-03-19T23:39:57.965Z,33.20
2023-03-19T23:42:29.698Z,33.42
2023-03-19T23:45:03.677Z,32.90
2023-03-19T23:47:31.829Z,31.15
2023-03-19T23:49:59.984Z,33.17
2023-03-19T23:52:27.752Z,33.25
2023-03-19T23:54:57.053Z,34.13
2023-03-19T23:57:26.977Z,34.90
2023-03-19T23:59:55.848Z,31.35
